createdAt,value
2023-02-02T00:00:05.294Z,4.72
2023-02-02T00:02:50.677Z,4.69
2023-02-02T00:05:36.117Z,4.66
2023-02-02T00:08:22.269Z,4.54
2023-02-02T00:11:07.653Z,4.56
2023-02-02T00:13:53.456Z,4.56
2023-02-02T00:16:41.519Z,4.51
2023-02-02T00:19:29.430Z,4.38
2023-02-02T00:22:14.620Z,4.40
2023-02-02T00:24:59.585Z,4.31
2023-02-02T00:27:45.083Z,4.36
2023-02-02T00:30:30.246Z,4.30
2023-02-02T00:33:15.553Z,4.24
2023-02-02T00:36:00.861Z,4.14
2023-02-02T00:38:46.577Z,4.15
2023-02-02T00:41:31.836Z,4.14
2023-02-02T00:44:17.084Z,4.15
2023-02-02T00:47:02.566Z,4.18
2023-02-02T00:49:47.608Z,4.20
2023-02-02T00:52:33.003Z,4.14
2023-02-02T00:55:19.214Z,4.09
2023-02-02T00:58:04.345Z,4.12
2023-02-02T01:00:49.661Z,4.12
2023-02-02T01:03:34.914Z,4.18
2023-02-02T01:06:20.278Z,4.16
2023-02-02T01:09:05.289Z,4.08
2023-02-02T01:11:50.645Z,4.04
2023-02-02T01:14:35.516Z,4.07
2023-02-02T01:17:20.952Z,4.04
2023-02-02T01:20:07.865Z,3.90
2023-02-02T01:22:53.260Z,3.86
2023-02-02T01:25:38.112Z,3.81
2023-02-02T01:28:24.260Z,3.78
2023-02-02T01:31:15.721Z,3.90
2023-02-02T01:34:01.086Z,3.94
2023-02-02T01:36:46.393Z,3.89
2023-02-02T01:39:32.304Z,3.87
2023-02-02T01:42:23.287Z,3.83
2023-02-02T01:45:14.361Z,3.85
2023-02-02T01:48:00.197Z,3.77
2023-02-02T01:50:49.917Z,3.77
2023-02-02T01:53:35.922Z,3.80
2023-02-02T01:56:28.616Z,3.77
2023-02-02T01:59:16.289Z,3.79
2023-02-02T02:02:02.522Z,3.77
2023-02-02T02:04:49.910Z,3.84
2023-02-02T02:07:35.502Z,3.80
2023-02-02T02:10:20.581Z,3.79
2023-02-02T02:13:06.613Z,3.84
2023-02-02T02:16:05.915Z,3.88
2023-02-02T02:19:09.830Z,3.88
2023-02-02T02:22:14.644Z,3.80
2023-02-02T02:25:09.143Z,3.81
2023-02-02T02:27:58.467Z,3.84
2023-02-02T02:31:01.786Z,3.84
2023-02-02T02:34:05.889Z,3.85
2023-02-02T02:37:10.334Z,3.95
2023-02-02T02:39:57.797Z,3.99
2023-02-02T02:42:49.718Z,4.03
2023-02-02T02:45:36.935Z,4.05
2023-02-02T02:48:22.429Z,4.00
2023-02-02T02:51:43.485Z,4.04
2023-02-02T02:54:34.016Z,4.11
2023-02-02T02:57:34.915Z,4.08
2023-02-02T03:00:54.384Z,4.07
2023-02-02T03:03:52.615Z,4.17
2023-02-02T03:06:48.865Z,4.17
2023-02-02T03:09:38.526Z,4.21
2023-02-02T03:12:24.319Z,4.08
2023-02-02T03:15:09.828Z,3.94
2023-02-02T03:17:55.369Z,3.94
2023-02-02T03:20:41.678Z,3.82
2023-02-02T03:23:27.378Z,3.85
2023-02-02T03:26:12.966Z,3.87
2023-02-02T03:28:58.422Z,3.92
2023-02-02T03:31:43.911Z,3.90
2023-02-02T03:34:28.909Z,3.85
2023-02-02T03:37:14.189Z,3.93
2023-02-02T03:39:59.380Z,3.91
2023-02-02T03:42:44.885Z,3.96
2023-02-02T03:45:30.853Z,4.01
2023-02-02T03:48:16.001Z,4.07
2023-02-02T03:51:05.821Z,4.15
2023-02-02T03:53:51.006Z,4.24
2023-02-02T03:56:36.318Z,4.20
2023-02-02T03:59:21.771Z,4.30
2023-02-02T04:02:07.200Z,4.37
2023-02-02T04:04:52.143Z,4.47
2023-02-02T04:07:39.758Z,4.41
2023-02-02T04:10:24.772Z,4.40
2023-02-02T04:13:10.142Z,4.46
2023-02-02T04:16:00.091Z,4.46
2023-02-02T04:18:45.233Z,4.55
2023-02-02T04:21:30.797Z,4.55
2023-02-02T04:24:15.689Z,4.61
2023-02-02T04:27:01.109Z,4.61
2023-02-02T04:29:46.360Z,4.65
2023-02-02T04:32:31.483Z,4.65
2023-02-02T04:35:16.861Z,4.72
2023-02-02T04:38:02.257Z,4.80
2023-02-02T04:40:48.468Z,4.83
2023-02-02T04:43:35.113Z,4.82
2023-02-02T04:46:20.138Z,4.81
2023-02-02T04:49:05.151Z,4.84
2023-02-02T04:51:50.384Z,4.86
2023-02-02T04:54:35.809Z,4.97
2023-02-02T04:57:21.087Z,5.00
2023-02-02T05:00:06.811Z,5.07
2023-02-02T05:02:52.003Z,4.83
2023-02-02T05:05:37.379Z,4.91
2023-02-02T05:08:22.790Z,4.76
2023-02-02T05:11:13.950Z,4.86
2023-02-02T05:14:00.273Z,4.84
2023-02-02T05:16:46.185Z,4.89
2023-02-02T05:19:31.541Z,4.98
2023-02-02T05:22:16.792Z,4.99
2023-02-02T05:25:02.304Z,4.97
2023-02-02T05:27:47.716Z,4.98
2023-02-02T05:30:33.678Z,5.00
2023-02-02T05:33:18.923Z,5.05
2023-02-02T05:36:04.880Z,5.11
2023-02-02T05:38:50.499Z,5.07
2023-02-02T05:41:35.678Z,5.18
2023-02-02T05:44:21.091Z,5.07
2023-02-02T05:47:06.099Z,5.15
2023-02-02T05:49:51.465Z,5.10
2023-02-02T05:52:39.035Z,5.08
2023-02-02T05:55:24.407Z,5.16
2023-02-02T05:58:09.995Z,5.17
2023-02-02T06:00:56.853Z,5.16
2023-02-02T06:03:42.384Z,5.16
2023-02-02T06:06:27.697Z,5.24
2023-02-02T06:09:13.509Z,5.29
2023-02-02T06:11:58.890Z,5.27
2023-02-02T06:14:44.794Z,5.20
2023-02-02T06:17:30.272Z,5.27
2023-02-02T06:20:15.556Z,5.16
2023-02-02T06:23:00.860Z,5.06
2023-02-02T06:25:46.161Z,4.97
2023-02-02T06:28:32.071Z,4.99
2023-02-02T06:31:18.026Z,4.87
2023-02-02T06:34:03.502Z,4.93
2023-02-02T06:36:48.617Z,4.87
2023-02-02T06:39:34.161Z,4.87
2023-02-02T06:42:21.882Z,4.91
2023-02-02T06:45:07.536Z,4.90
2023-02-02T06:47:53.258Z,4.89
2023-02-02T06:50:38.767Z,4.88
2023-02-02T06:53:23.778Z,4.76
2023-02-02T06:56:12.455Z,4.78
2023-02-02T06:58:57.496Z,4.75
2023-02-02T07:01:42.844Z,4.68
2023-02-02T07:04:28.328Z,4.72
2023-02-02T07:07:13.396Z,4.71
2023-02-02T07:09:58.745Z,4.68
2023-02-02T07:12:44.299Z,4.68
2023-02-02T07:15:29.490Z,4.75
2023-02-02T07:18:14.875Z,4.70
2023-02-02T07:21:01.117Z,4.67
2023-02-02T07:23:45.987Z,4.58
2023-02-02T07:26:31.767Z,4.54
2023-02-02T07:29:17.201Z,4.57
2023-02-02T07:32:02.545Z,4.38
2023-02-02T07:34:47.475Z,4.37
2023-02-02T07:37:32.952Z,4.40
2023-02-02T07:40:18.380Z,4.33
2023-02-02T07:43:03.559Z,4.26
2023-02-02T07:45:48.480Z,4.32
2023-02-02T07:48:35.024Z,4.23
2023-02-02T07:51:20.052Z,4.15
2023-02-02T07:54:05.599Z,4.10
2023-02-02T07:56:50.870Z,4.12
2023-02-02T07:59:36.213Z,4.06
2023-02-02T08:02:21.592Z,4.02
2023-02-02T08:05:06.911Z,4.12
2023-02-02T08:07:52.285Z,4.14
2023-02-02T08:10:37.891Z,4.15
2023-02-02T08:13:23.275Z,4.19
2023-02-02T08:16:09.233Z,4.18
2023-02-02T08:18:54.452Z,4.21
2023-02-02T08:21:40.502Z,4.25
2023-02-02T08:24:25.934Z,4.23
2023-02-02T08:27:11.228Z,4.25
2023-02-02T08:29:56.693Z,4.18
2023-02-02T08:32:42.093Z,4.24
2023-02-02T08:35:27.489Z,4.21
2023-02-02T08:38:13.392Z,4.23
2023-02-02T08:41:45.281Z,4.18
2023-02-02T08:45:00.698Z,4.15
2023-02-02T08:47:35.744Z,4.16
2023-02-02T08:50:21.181Z,4.21
2023-02-02T08:53:06.115Z,4.21
2023-02-02T08:56:02.167Z,4.15
2023-02-02T08:58:50.486Z,4.07
2023-02-02T09:01:35.693Z,4.13
2023-02-02T09:04:20.808Z,4.10
2023-02-02T09:07:06.013Z,4.12
2023-02-02T09:09:51.144Z,4.20
2023-02-02T09:12:36.317Z,4.16
2023-02-02T09:15:21.238Z,4.13
2023-02-02T09:18:06.687Z,4.25
2023-02-02T09:20:51.993Z,4.25
2023-02-02T09:23:39.477Z,4.32
2023-02-02T09:26:28.870Z,4.41
2023-02-02T09:29:17.382Z,4.25
2023-02-02T09:32:02.541Z,4.18
2023-02-02T09:34:48.226Z,4.25
2023-02-02T09:37:36.490Z,4.12
2023-02-02T09:40:21.841Z,4.21
2023-02-02T09:43:12.811Z,4.31
2023-02-02T09:46:06.877Z,4.17
2023-02-02T09:49:00.689Z,4.25
2023-02-02T09:51:53.643Z,4.16
2023-02-02T09:54:45.996Z,4.20
2023-02-02T09:57:39.836Z,4.14
2023-02-02T10:00:31.473Z,3.90
2023-02-02T10:03:47.693Z,4.04
2023-02-02T10:06:39.104Z,4.09
2023-02-02T10:09:40.860Z,4.04
2023-02-02T10:12:43.410Z,4.04
2023-02-02T10:16:06.921Z,3.97
2023-02-02T10:18:59.786Z,4.18
2023-02-02T10:22:02.435Z,4.19
2023-02-02T10:24:47.645Z,4.15
2023-02-02T10:27:40.259Z,4.22
2023-02-02T10:30:35.228Z,4.39
2023-02-02T10:33:30.520Z,4.25
2023-02-02T10:36:32.659Z,4.27
2023-02-02T10:39:27.916Z,4.50
2023-02-02T10:42:26.951Z,4.47
2023-02-02T10:45:19.162Z,4.39
2023-02-02T10:48:13.792Z,4.59
2023-02-02T10:51:02.278Z,4.73
2023-02-02T10:53:50.877Z,4.83
2023-02-02T10:56:40.315Z,4.68
2023-02-02T10:59:33.429Z,4.78
2023-02-02T11:02:21.074Z,4.59
2023-02-02T11:05:12.837Z,4.43
2023-02-02T11:07:57.918Z,4.48
2023-02-02T11:10:48.496Z,4.32
2023-02-02T11:13:41.117Z,4.36
2023-02-02T11:16:38.785Z,4.39
2023-02-02T11:19:32.423Z,4.46
2023-02-02T11:22:34.204Z,4.21
2023-02-02T11:25:38.000Z,4.33
2023-02-02T11:28:26.041Z,4.32
2023-02-02T11:31:10.983Z,4.22
2023-02-02T11:34:20.572Z,4.02
2023-02-02T11:37:13.924Z,4.00
2023-02-02T11:40:20.326Z,4.08
2023-02-02T11:43:17.128Z,3.98
2023-02-02T11:46:13.139Z,4.03
2023-02-02T11:49:00.442Z,4.17
2023-02-02T11:52:07.442Z,4.02
2023-02-02T11:54:56.880Z,4.09
2023-02-02T11:58:12.079Z,4.21
2023-02-02T12:01:03.409Z,4.11
2023-02-02T12:03:48.665Z,4.11
2023-02-02T12:06:36.717Z,4.16
2023-02-02T12:09:24.559Z,4.25
2023-02-02T12:12:39.292Z,4.33
2023-02-02T12:15:43.870Z,4.43
2023-02-02T12:18:57.256Z,4.19
2023-02-02T12:22:21.853Z,4.15
2023-02-02T12:25:44.919Z,4.17
2023-02-02T12:28:51.611Z,4.16
2023-02-02T12:31:45.899Z,4.11
2023-02-02T12:34:56.927Z,4.00
2023-02-02T12:38:03.853Z,4.03
2023-02-02T12:41:31.912Z,4.13
2023-02-02T12:44:28.717Z,4.01
2023-02-02T12:47:58.695Z,4.09
2023-02-02T12:50:54.165Z,4.10
2023-02-02T12:54:34.717Z,4.06
2023-02-02T12:57:19.164Z,4.13
2023-02-02T13:00:49.574Z,4.21
2023-02-02T13:04:00.181Z,4.19
2023-02-02T13:06:55.726Z,4.18
2023-02-02T13:09:59.122Z,4.20
2023-02-02T13:12:56.716Z,4.13
2023-02-02T13:15:45.559Z,4.16
2023-02-02T13:18:37.613Z,4.05
2023-02-02T13:21:24.906Z,4.02
2023-02-02T13:24:14.960Z,4.15
2023-02-02T13:27:04.006Z,4.10
2023-02-02T13:30:18.592Z,4.07
2023-02-02T13:33:13.490Z,4.02
2023-02-02T13:36:23.127Z,4.02
2023-02-02T13:39:20.324Z,4.04
2023-02-02T13:42:07.749Z,4.11
2023-02-02T13:45:00.368Z,4.17
2023-02-02T13:47:53.251Z,4.15
2023-02-02T13:50:56.413Z,4.08
2023-02-02T13:53:55.345Z,4.13
2023-02-02T13:56:55.669Z,4.15
2023-02-02T14:00:17.536Z,4.12
2023-02-02T14:03:07.150Z,4.17
2023-02-02T14:06:06.006Z,4.12
2023-02-02T14:08:55.932Z,4.16
2023-02-02T14:11:56.386Z,4.13
2023-02-02T14:14:46.749Z,4.16
2023-02-02T14:17:32.160Z,4.17
2023-02-02T14:20:41.781Z,4.15
2023-02-02T14:23:53.189Z,4.15
2023-02-02T14:26:46.269Z,4.04
2023-02-02T14:29:31.641Z,4.15
2023-02-02T14:32:25.912Z,4.13
2023-02-02T14:35:11.692Z,4.11
2023-02-02T14:38:04.738Z,4.19
2023-02-02T14:41:10.613Z,4.18
2023-02-02T14:43:55.568Z,4.15
2023-02-02T14:46:41.198Z,4.11
2023-02-02T14:49:32.137Z,4.10
2023-02-02T14:52:22.665Z,4.14
2023-02-02T14:55:27.161Z,4.10
2023-02-02T14:58:23.969Z,4.07
2023-02-02T15:01:12.990Z,4.07
2023-02-02T15:04:16.996Z,4.10
2023-02-02T15:07:37.165Z,4.11
2023-02-02T15:10:47.322Z,4.20
2023-02-02T15:13:37.172Z,4.13
2023-02-02T15:16:29.184Z,4.09
2023-02-02T15:19:24.712Z,4.12
2023-02-02T15:22:25.354Z,4.07
2023-02-02T15:25:21.759Z,4.01
2023-02-02T15:28:29.212Z,4.07
2023-02-02T15:31:29.400Z,4.02
2023-02-02T15:34:23.461Z,4.01
2023-02-02T15:37:18.112Z,4.00
2023-02-02T15:40:07.442Z,3.99
2023-02-02T15:42:57.179Z,3.98
2023-02-02T15:46:00.942Z,3.97
2023-02-02T15:48:47.433Z,3.94
2023-02-02T15:51:33.848Z,3.95
2023-02-02T15:54:24.903Z,3.94
2023-02-02T15:57:44.808Z,3.99
2023-02-02T16:00:34.055Z,3.96
2023-02-02T16:03:26.649Z,4.00
2023-02-02T16:06:12.588Z,4.17
2023-02-02T16:08:57.886Z,4.02
2023-02-02T16:11:44.783Z,3.94
2023-02-02T16:14:31.016Z,4.07
2023-02-02T16:17:28.223Z,4.11
2023-02-02T16:20:16.472Z,3.92
2023-02-02T16:23:02.908Z,3.86
2023-02-02T16:25:53.004Z,3.92
2023-02-02T16:28:40.099Z,3.89
2023-02-02T16:31:25.606Z,3.85
2023-02-02T16:34:39.909Z,3.84
2023-02-02T16:37:27.368Z,3.88
2023-02-02T16:40:26.171Z,3.82
2023-02-02T16:43:20.057Z,3.85
2023-02-02T16:46:07.096Z,3.82
2023-02-02T16:48:59.275Z,3.86
2023-02-02T16:51:46.949Z,3.88
2023-02-02T16:54:32.404Z,3.85
2023-02-02T16:57:36.542Z,3.81
2023-02-02T17:00:27.994Z,3.79
2023-02-02T17:03:18.117Z,3.82
2023-02-02T17:06:04.975Z,3.84
2023-02-02T17:08:51.543Z,3.83
2023-02-02T17:11:36.808Z,3.84
2023-02-02T17:14:32.581Z,3.90
2023-02-02T17:17:17.940Z,3.87
2023-02-02T17:20:05.087Z,3.95
2023-02-02T17:22:54.337Z,3.89
2023-02-02T17:25:44.020Z,3.92
2023-02-02T17:28:29.677Z,4.02
2023-02-02T17:31:16.338Z,4.02
2023-02-02T17:34:01.293Z,4.09
2023-02-02T17:36:46.203Z,4.13
2023-02-02T17:39:31.609Z,4.07
2023-02-02T17:42:24.900Z,4.10
2023-02-02T17:45:16.391Z,4.12
2023-02-02T17:48:02.674Z,4.15
2023-02-02T17:50:48.141Z,4.19
2023-02-02T17:53:33.624Z,4.20
2023-02-02T17:56:18.937Z,4.23
2023-02-02T17:59:03.978Z,4.26
2023-02-02T18:01:50.031Z,4.38
2023-02-02T18:04:35.871Z,4.32
2023-02-02T18:07:20.993Z,4.40
2023-02-02T18:10:07.575Z,4.56
2023-02-02T18:12:52.944Z,4.67
2023-02-02T18:15:38.553Z,4.66
2023-02-02T18:18:23.851Z,4.79
2023-02-02T18:21:10.492Z,5.18
2023-02-02T18:23:55.753Z,5.31
2023-02-02T18:26:41.311Z,5.59
2023-02-02T18:29:26.486Z,5.65
2023-02-02T18:32:11.564Z,5.85
2023-02-02T18:34:56.888Z,5.99
2023-02-02T18:37:42.449Z,6.07
2023-02-02T18:40:27.496Z,6.12
2023-02-02T18:43:12.932Z,6.13
2023-02-02T18:46:03.695Z,6.12
2023-02-02T18:48:48.752Z,6.16
2023-02-02T18:51:34.145Z,6.16
2023-02-02T18:54:19.627Z,6.22
2023-02-02T18:57:04.873Z,6.21
2023-02-02T18:59:52.554Z,6.23
2023-02-02T19:02:37.512Z,6.26
2023-02-02T19:05:22.278Z,6.26
2023-02-02T19:08:07.642Z,6.24
2023-02-02T19:10:59.957Z,6.30
2023-02-02T19:13:46.015Z,6.27
2023-02-02T19:16:33.826Z,6.29
2023-02-02T19:19:27.783Z,6.34
2023-02-02T19:22:19.066Z,6.35
2023-02-02T19:25:11.296Z,6.36
2023-02-02T19:27:58.378Z,6.29
2023-02-02T19:30:43.801Z,6.28
2023-02-02T19:33:37.656Z,6.34
2023-02-02T19:36:24.793Z,6.36
2023-02-02T19:39:17.230Z,6.34
2023-02-02T19:42:10.169Z,6.31
2023-02-02T19:44:56.503Z,6.38
2023-02-02T19:47:42.549Z,6.39
2023-02-02T19:50:36.630Z,6.37
2023-02-02T19:53:24.268Z,6.37
2023-02-02T19:56:34.193Z,6.38
2023-02-02T19:59:20.307Z,6.39
2023-02-02T20:02:39.806Z,6.42
2023-02-02T20:05:28.624Z,6.42
2023-02-02T20:08:38.830Z,6.45
2023-02-02T20:11:54.977Z,6.48
2023-02-02T20:14:40.295Z,6.48
2023-02-02T20:17:32.012Z,6.46
2023-02-02T20:20:42.899Z,6.46
2023-02-02T20:23:44.832Z,6.46
2023-02-02T20:26:35.328Z,6.48
2023-02-02T20:29:23.243Z,6.52
2023-02-02T20:32:20.626Z,6.50
2023-02-02T20:35:24.109Z,6.51
2023-02-02T20:38:25.271Z,6.56
2023-02-02T20:41:10.932Z,6.56
2023-02-02T20:43:55.958Z,6.54
2023-02-02T20:46:41.320Z,6.58
2023-02-02T20:49:27.615Z,6.61
2023-02-02T20:52:15.001Z,6.61
2023-02-02T20:55:00.217Z,6.63
2023-02-02T20:57:45.670Z,6.65
2023-02-02T21:00:30.990Z,6.64
2023-02-02T21:03:16.278Z,6.62
2023-02-02T21:06:01.582Z,6.64
2023-02-02T21:08:46.847Z,6.68
2023-02-02T21:11:32.191Z,6.65
2023-02-02T21:14:17.420Z,6.64
2023-02-02T21:17:14.455Z,6.65
2023-02-02T21:20:00.725Z,6.69
2023-02-02T21:22:45.995Z,6.70
2023-02-02T21:25:31.171Z,6.71
2023-02-02T21:28:16.611Z,6.73
2023-02-02T21:31:01.965Z,6.77
2023-02-02T21:33:47.778Z,6.78
2023-02-02T21:36:35.823Z,6.75
2023-02-02T21:39:24.015Z,6.79
2023-02-02T21:42:09.413Z,6.83
2023-02-02T21:45:07.454Z,6.79
2023-02-02T21:47:58.521Z,6.81
2023-02-02T21:50:43.518Z,6.82
2023-02-02T21:53:29.009Z,6.82
2023-02-02T21:56:35.284Z,6.82
2023-02-02T21:59:32.654Z,6.82
2023-02-02T22:02:36.317Z,6.83
2023-02-02T22:05:33.761Z,6.82
2023-02-02T22:08:25.177Z,6.83
2023-02-02T22:11:27.260Z,6.85
2023-02-02T22:14:38.533Z,6.86
2023-02-02T22:17:29.063Z,6.85
2023-02-02T22:20:17.581Z,6.87
2023-02-02T22:23:03.287Z,6.90
2023-02-02T22:25:51.946Z,6.89
2023-02-02T22:28:39.695Z,6.87
2023-02-02T22:31:25.171Z,6.92
2023-02-02T22:34:10.670Z,6.94
2023-02-02T22:36:55.631Z,6.99
2023-02-02T22:39:41.109Z,6.95
2023-02-02T22:42:26.523Z,7.01
2023-02-02T22:45:11.944Z,7.02
2023-02-02T22:47:57.886Z,7.00
2023-02-02T22:50:43.567Z,7.04
2023-02-02T22:53:28.841Z,7.07
2023-02-02T22:56:14.129Z,7.10
2023-02-02T22:58:59.447Z,7.12
2023-02-02T23:01:44.408Z,7.19
2023-02-02T23:04:29.791Z,7.22
2023-02-02T23:07:15.257Z,7.21
2023-02-02T23:10:00.993Z,7.25
2023-02-02T23:12:47.207Z,7.28
2023-02-02T23:15:33.077Z,7.26
2023-02-02T23:18:18.751Z,7.21
2023-02-02T23:21:03.866Z,7.25
2023-02-02T23:23:49.244Z,7.23
2023-02-02T23:26:34.377Z,7.21
2023-02-02T23:29:20.868Z,7.23
2023-02-02T23:32:06.266Z,7.22
2023-02-02T23:34:51.486Z,7.27
2023-02-02T23:37:36.540Z,7.27
2023-02-02T23:40:22.166Z,7.27
2023-02-02T23:43:07.394Z,7.32
2023-02-02T23:45:53.196Z,7.36
2023-02-02T23:48:41.567Z,7.34
2023-02-02T23:51:27.194Z,7.33
2023-02-02T23:54:13.776Z,7.30
2023-02-02T23:56:59.530Z,7.34
2023-02-02T23:59:44.715Z,7.34
